Time;durP1;ratioP1;P1;durP2;ratioP2;P2;SDS_P1;SDS_P2;PMS_P1;PMS_P2;Temp;Humidity;BMP_temperature;BMP_pressure;BME280_temperature;BME280_humidity;BME280_pressure;Samples;Min_cycle;Max_cycle;Signal;HPM_P1;HPM_P2
2022/07/11 00:00:18;;;;;;;0.40;0.40;;;13.30;99.90;;;;;;5075952;28;20443;-72
2022/07/11 00:03:07;;;;;;;0.50;0.50;;;13.40;99.90;;;;;;5076460;28;20470;-72
2022/07/11 00:05:55;;;;;;;0.40;0.40;;;13.40;99.90;;;;;;5088945;28;20939;-71
2022/07/11 00:08:43;;;;;;;0.50;0.50;;;13.30;99.90;;;;;;5088831;28;20451;-73
2022/07/11 00:11:31;;;;;;;0.43;0.43;;;13.20;99.90;;;;;;5087791;28;20506;-72
2022/07/11 00:14:21;;;;;;;0.40;0.40;;;13.30;99.90;;;;;;5090961;28;20497;-72
2022/07/11 00:17:10;;;;;;;0.40;0.40;;;13.00;99.90;;;;;;5089825;28;20427;-73
2022/07/11 00:19:58;;;;;;;0.40;0.40;;;13.10;99.90;;;;;;5091557;28;20455;-74
2022/07/11 00:22:46;;;;;;;0.50;0.50;;;13.10;99.90;;;;;;5090647;28;20497;-72
2022/07/11 00:25:34;;;;;;;0.43;0.43;;;13.10;99.90;;;;;;5090691;28;20433;-72
2022/07/11 00:28:22;;;;;;;0.40;0.40;;;13.10;99.90;;;;;;5090865;28;20963;-71
2022/07/11 00:31:12;;;;;;;0.43;0.43;;;13.10;99.90;;;;;;5091091;28;20423;-71
2022/07/11 00:34:00;;;;;;;0.97;0.97;;;13.00;99.90;;;;;;5090662;28;20966;-70
2022/07/11 00:36:48;;;;;;;0.40;0.40;;;13.00;99.90;;;;;;5091863;28;20514;-73
2022/07/11 00:39:37;;;;;;;0.60;0.60;;;13.10;99.90;;;;;;5069286;28;20521;-71
2022/07/11 00:42:25;;;;;;;0.50;0.50;;;12.90;99.90;;;;;;5056210;28;20467;-70
2022/07/11 00:45:13;;;;;;;0.40;0.40;;;12.90;99.90;;;;;;5056576;28;20785;-70
2022/07/11 00:48:02;;;;;;;0.50;0.50;;;12.90;99.90;;;;;;5055733;28;20949;-72
2022/07/11 00:50:50;;;;;;;0.40;0.40;;;12.90;99.90;;;;;;5055692;28;20435;-71
2022/07/11 00:53:41;;;;;;;0.40;0.40;;;12.80;99.90;;;;;;5055789;28;20435;-71
2022/07/11 00:56:31;;;;;;;0.50;0.50;;;12.70;99.90;;;;;;5059847;28;20930;-74
2022/07/11 00:59:19;;;;;;;0.50;0.50;;;12.80;99.90;;;;;;5075516;28;20450;-70
2022/07/11 01:02:08;;;;;;;0.50;0.50;;;12.60;99.90;;;;;;5073682;28;20977;-71
2022/07/11 01:04:57;;;;;;;0.40;0.40;;;12.60;99.90;;;;;;5074252;28;20425;-71
2022/07/11 01:07:46;;;;;;;0.50;0.50;;;12.60;99.90;;;;;;5074831;28;20427;-71
2022/07/11 01:10:35;;;;;;;0.40;0.40;;;12.60;99.90;;;;;;5075088;28;20420;-71
2022/07/11 01:13:23;;;;;;;0.50;0.50;;;12.50;99.90;;;;;;5074319;28;20424;-71
2022/07/11 01:16:13;;;;;;;0.50;0.50;;;12.50;99.90;;;;;;5075361;28;20431;-70
2022/07/11 01:19:02;;;;;;;0.50;0.50;;;12.40;99.90;;;;;;5075082;28;20465;-70
2022/07/11 01:21:55;;;;;;;0.50;0.50;;;12.40;99.90;;;;;;5073273;28;20423;-71
2022/07/11 01:24:45;;;;;;;0.47;0.47;;;12.30;99.90;;;;;;5075297;28;20462;-71
2022/07/11 01:27:34;;;;;;;0.63;0.63;;;12.30;99.90;;;;;;5074430;28;20504;-71
2022/07/11 01:30:23;;;;;;;1.17;0.73;;;12.30;99.90;;;;;;5075256;28;20451;-72
2022/07/11 01:33:11;;;;;;;0.50;0.50;;;12.40;99.90;;;;;;5074174;28;20446;-72
2022/07/11 01:36:00;;;;;;;0.50;0.50;;;12.30;99.90;;;;;;5075313;28;20427;-70
2022/07/11 01:38:48;;;;;;;0.50;0.50;;;12.20;99.90;;;;;;5073725;28;20473;-70
2022/07/11 01:41:38;;;;;;;0.50;0.50;;;12.20;99.90;;;;;;5074260;28;20427;-70
2022/07/11 01:44:26;;;;;;;0.40;0.40;;;12.20;99.90;;;;;;5074653;28;20459;-70
2022/07/11 01:47:14;;;;;;;0.40;0.40;;;12.20;99.90;;;;;;5075757;28;20431;-70
2022/07/11 01:50:03;;;;;;;0.50;0.50;;;12.10;99.90;;;;;;5073577;28;20439;-71
2022/07/11 01:52:51;;;;;;;0.47;0.47;;;12.10;99.90;;;;;;5073620;28;20473;-71
2022/07/11 01:55:39;;;;;;;0.50;0.50;;;12.00;99.90;;;;;;5084925;28;20431;-74
2022/07/11 01:58:49;;;;;;;0.40;0.40;;;12.00;99.90;;;;;;5064828;28;20440;-76
2022/07/11 02:01:37;;;;;;;0.50;0.50;;;11.90;99.90;;;;;;5065688;28;20428;-74
2022/07/11 02:04:25;;;;;;;0.40;0.40;;;11.80;99.90;;;;;;5075197;28;20476;-75
2022/07/11 02:07:15;;;;;;;0.50;0.50;;;11.80;99.90;;;;;;5066514;28;20432;-75
2022/07/11 02:10:03;;;;;;;0.60;0.50;;;11.70;99.90;;;;;;5062354;28;20983;-74
2022/07/11 02:12:51;;;;;;;0.50;0.50;;;11.70;99.90;;;;;;5063800;28;20431;-73
2022/07/11 02:15:42;;;;;;;0.50;0.50;;;11.70;99.90;;;;;;5061881;28;20474;-77
2022/07/11 02:18:34;;;;;;;0.50;0.50;;;11.70;99.90;;;;;;5064035;28;20572;-75
2022/07/11 02:21:22;;;;;;;0.47;0.47;;;11.60;99.90;;;;;;5063197;28;20431;-75
2022/07/11 02:24:10;;;;;;;0.40;0.40;;;11.60;99.90;;;;;;5061846;28;20472;-76
2022/07/11 02:26:58;;;;;;;0.50;0.50;;;11.60;99.90;;;;;;5060714;28;20477;-75
2022/07/11 02:29:46;;;;;;;0.50;0.50;;;11.50;99.90;;;;;;5060853;28;20530;-76
2022/07/11 02:32:36;;;;;;;0.50;0.50;;;11.50;99.90;;;;;;5062486;28;20845;-75
2022/07/11 02:35:25;;;;;;;0.60;0.60;;;11.50;99.90;;;;;;5062530;28;20424;-75
2022/07/11 02:38:14;;;;;;;0.50;0.50;;;11.40;99.90;;;;;;5062189;28;21005;-75
2022/07/11 02:41:03;;;;;;;0.47;0.47;;;11.40;99.90;;;;;;5061613;28;20420;-75
2022/07/11 02:43:51;;;;;;;0.50;0.50;;;11.30;99.90;;;;;;5062139;28;20505;-78
2022/07/11 02:46:40;;;;;;;0.60;0.60;;;11.30;99.90;;;;;;5061755;28;20436;-76
2022/07/11 02:49:30;;;;;;;0.50;0.50;;;11.30;99.90;;;;;;5061110;28;20444;-77
2022/07/11 02:52:18;;;;;;;0.50;0.50;;;11.20;99.90;;;;;;5060278;28;20447;-72
2022/07/11 02:55:08;;;;;;;0.50;0.50;;;11.30;99.90;;;;;;5059483;28;20447;-76
2022/07/11 02:57:56;;;;;;;0.50;0.50;;;11.30;99.90;;;;;;5078268;28;20449;-74
2022/07/11 03:00:44;;;;;;;0.50;0.50;;;11.20;99.90;;;;;;5079828;28;20423;-74
2022/07/11 03:03:32;;;;;;;0.50;0.50;;;11.20;99.90;;;;;;5084426;28;20473;-75
2022/07/11 03:06:21;;;;;;;0.50;0.50;;;11.20;99.90;;;;;;5086015;28;20465;-74
2022/07/11 03:09:10;;;;;;;0.50;0.50;;;11.10;99.90;;;;;;5084111;28;20463;-75
2022/07/11 03:11:58;;;;;;;0.50;0.50;;;11.20;99.90;;;;;;5086944;28;21004;-76
2022/07/11 03:14:47;;;;;;;0.50;0.50;;;11.10;99.90;;;;;;5086020;28;20426;-75
2022/07/11 03:17:35;;;;;;;0.40;0.40;;;11.10;99.90;;;;;;5084649;28;20427;-73
2022/07/11 03:20:23;;;;;;;0.40;0.40;;;11.10;99.90;;;;;;5084589;28;20447;-75
2022/07/11 03:23:13;;;;;;;0.40;0.40;;;11.10;99.90;;;;;;5084871;28;20427;-76
2022/07/11 03:26:01;;;;;;;0.50;0.50;;;11.10;99.90;;;;;;5085333;28;20438;-74
2022/07/11 03:28:49;;;;;;;0.50;0.50;;;11.10;99.90;;;;;;5085394;28;20447;-74
2022/07/11 03:31:37;;;;;;;0.40;0.40;;;11.10;99.90;;;;;;5085107;28;20423;-75
2022/07/11 03:34:26;;;;;;;0.40;0.40;;;11.10;99.90;;;;;;5083803;28;20423;-74
2022/07/11 03:37:14;;;;;;;0.93;0.83;;;11.10;99.90;;;;;;5083906;28;20431;-73
2022/07/11 03:40:04;;;;;;;0.50;0.50;;;11.10;99.90;;;;;;5082198;28;20473;-73
2022/07/11 03:42:52;;;;;;;0.50;0.50;;;11.10;99.90;;;;;;5082376;28;20854;-74
2022/07/11 03:45:41;;;;;;;0.70;0.70;;;11.10;99.90;;;;;;5084937;28;21017;-74
2022/07/11 03:48:29;;;;;;;0.50;0.50;;;11.10;99.90;;;;;;5083022;28;20474;-73
2022/07/11 03:51:17;;;;;;;0.43;0.43;;;11.10;99.90;;;;;;5083867;28;20423;-75
2022/07/11 03:54:05;;;;;;;0.80;0.70;;;11.10;99.90;;;;;;5083793;28;20426;-73
2022/07/11 03:56:55;;;;;;;0.83;0.83;;;11.10;99.90;;;;;;5084162;28;20426;-73
2022/07/11 03:59:43;;;;;;;0.40;0.40;;;11.20;99.90;;;;;;5084224;28;20824;-74
2022/07/11 04:02:31;;;;;;;0.50;0.50;;;11.20;99.90;;;;;;5084496;28;20431;-75
2022/07/11 04:05:19;;;;;;;0.50;0.50;;;11.20;99.90;;;;;;5081809;28;20943;-72
2022/07/11 04:08:07;;;;;;;0.50;0.50;;;11.20;99.90;;;;;;5087454;28;20419;-71
2022/07/11 04:10:55;;;;;;;0.50;0.50;;;11.20;99.90;;;;;;5098013;28;20427;-75
2022/07/11 04:13:45;;;;;;;0.80;0.80;;;11.30;99.90;;;;;;5082014;28;20438;-74
2022/07/11 04:16:34;;;;;;;0.50;0.50;;;11.30;99.90;;;;;;5081366;28;20426;-73
2022/07/11 04:19:23;;;;;;;0.50;0.50;;;11.30;99.90;;;;;;5081474;28;20824;-75
2022/07/11 04:22:11;;;;;;;0.87;0.87;;;11.40;99.90;;;;;;5082447;28;20481;-75
2022/07/11 04:24:59;;;;;;;0.87;0.70;;;11.50;99.90;;;;;;5083467;28;20524;-75
2022/07/11 04:27:47;;;;;;;0.40;0.40;;;11.40;99.90;;;;;;5083202;28;20431;-74
2022/07/11 04:30:37;;;;;;;0.50;0.50;;;11.50;99.90;;;;;;5083093;28;20440;-74
2022/07/11 04:33:25;;;;;;;0.50;0.50;;;11.60;99.90;;;;;;5084280;28;20423;-74
2022/07/11 04:36:13;;;;;;;1.40;0.90;;;11.60;99.90;;;;;;5084160;28;20462;-74
2022/07/11 04:39:01;;;;;;;1.37;0.80;;;11.70;99.90;;;;;;5082763;28;20467;-75
2022/07/11 04:41:49;;;;;;;0.50;0.50;;;11.60;99.90;;;;;;5083637;28;20472;-75
2022/07/11 04:44:37;;;;;;;0.50;0.50;;;11.80;99.90;;;;;;5082270;28;20467;-74
2022/07/11 04:47:27;;;;;;;0.40;0.40;;;11.80;99.90;;;;;;5083027;28;20423;-76
2022/07/11 04:50:15;;;;;;;0.50;0.50;;;11.80;99.90;;;;;;5084280;28;20451;-73
2022/07/11 04:53:03;;;;;;;0.60;0.60;;;11.90;99.90;;;;;;5084945;28;20428;-74
2022/07/11 04:55:51;;;;;;;0.40;0.40;;;11.90;99.90;;;;;;5085076;28;20942;-76
2022/07/11 04:58:39;;;;;;;0.63;0.63;;;11.90;99.90;;;;;;5064371;28;20440;-73
2022/07/11 05:01:28;;;;;;;1.10;0.90;;;12.00;99.90;;;;;;5062919;28;20421;-73
2022/07/11 05:04:18;;;;;;;0.50;0.50;;;12.00;99.90;;;;;;5063470;28;20424;-77
2022/07/11 05:07:06;;;;;;;0.50;0.50;;;12.00;99.90;;;;;;5062944;28;20428;-75
2022/07/11 05:09:55;;;;;;;0.40;0.40;;;12.20;99.90;;;;;;5064195;28;20456;-75
2022/07/11 05:12:43;;;;;;;0.50;0.50;;;12.20;99.90;;;;;;5062207;28;20435;-74
2022/07/11 05:15:31;;;;;;;0.60;0.60;;;12.20;99.90;;;;;;5063744;28;20443;-73
2022/07/11 05:18:19;;;;;;;0.40;0.40;;;12.30;99.90;;;;;;5064315;28;20971;-76
2022/07/11 05:21:09;;;;;;;0.50;0.50;;;12.30;99.90;;;;;;5063407;28;20499;-75
2022/07/11 05:23:57;;;;;;;0.60;0.60;;;12.30;99.90;;;;;;5064527;28;20443;-73
2022/07/11 05:26:46;;;;;;;1.17;0.80;;;12.50;99.90;;;;;;5070879;28;20643;-73
2022/07/11 05:29:35;;;;;;;2.30;1.43;;;12.50;99.90;;;;;;5083167;28;20447;-74
2022/07/11 05:32:23;;;;;;;0.60;0.60;;;12.50;99.90;;;;;;5084731;28;20431;-75
2022/07/11 05:35:11;;;;;;;0.50;0.50;;;12.70;99.90;;;;;;5085681;28;20484;-74
2022/07/11 05:38:00;;;;;;;0.50;0.50;;;12.70;99.90;;;;;;5083548;28;20423;-74
2022/07/11 05:40:48;;;;;;;0.60;0.50;;;12.70;99.90;;;;;;5083251;28;20969;-73
2022/07/11 05:43:36;;;;;;;0.87;0.87;;;12.80;99.90;;;;;;5084563;28;20427;-76
2022/07/11 05:46:24;;;;;;;1.23;1.23;;;12.90;99.90;;;;;;5082412;28;20857;-73
2022/07/11 05:49:13;;;;;;;3.23;3.03;;;13.00;99.90;;;;;;5080177;28;20443;-74
2022/07/11 05:52:02;;;;;;;0.57;0.50;;;13.00;99.90;;;;;;5080211;28;20426;-75
2022/07/11 05:54:51;;;;;;;0.63;0.63;;;13.00;99.90;;;;;;5078811;28;20434;-74
2022/07/11 05:57:40;;;;;;;0.70;0.70;;;13.20;99.90;;;;;;5066312;28;20424;-75
2022/07/11 06:00:28;;;;;;;0.40;0.40;;;13.10;99.90;;;;;;5060624;28;20443;-74
2022/07/11 06:03:16;;;;;;;2.33;0.70;;;13.20;99.90;;;;;;5059873;28;20409;-76
2022/07/11 06:06:06;;;;;;;0.50;0.50;;;13.30;99.90;;;;;;5061043;28;20829;-73
2022/07/11 06:08:54;;;;;;;0.40;0.40;;;13.40;99.90;;;;;;5060156;28;20965;-77
2022/07/11 06:11:44;;;;;;;0.50;0.50;;;13.40;99.90;;;;;;5060104;28;20428;-75
2022/07/11 06:14:33;;;;;;;0.50;0.50;;;13.60;99.90;;;;;;5061550;28;20452;-77
2022/07/11 06:17:21;;;;;;;0.40;0.40;;;13.50;99.90;;;;;;5091567;28;20451;-73
2022/07/11 06:20:10;;;;;;;0.43;0.43;;;13.50;99.90;;;;;;5077671;28;20450;-77
2022/07/11 06:22:58;;;;;;;0.40;0.40;;;13.70;99.90;;;;;;5080586;28;20434;-77
2022/07/11 06:25:46;;;;;;;0.43;0.43;;;13.90;99.90;;;;;;5081969;28;20459;-74
2022/07/11 06:28:35;;;;;;;0.47;0.47;;;13.80;99.90;;;;;;5079871;28;20513;-74
2022/07/11 06:31:24;;;;;;;1.53;1.43;;;13.90;99.90;;;;;;5080684;28;20465;-76
2022/07/11 06:34:12;;;;;;;0.50;0.50;;;14.00;99.90;;;;;;5079334;28;20435;-73
2022/07/11 06:37:01;;;;;;;0.50;0.50;;;14.10;99.90;;;;;;5079797;28;20415;-73
2022/07/11 06:39:50;;;;;;;0.40;0.40;;;14.20;99.90;;;;;;5080467;28;20863;-74
2022/07/11 06:42:38;;;;;;;0.47;0.47;;;14.30;99.90;;;;;;5082118;28;20423;-75
2022/07/11 06:45:27;;;;;;;0.40;0.40;;;14.40;99.90;;;;;;5080078;28;20542;-73
2022/07/11 06:48:16;;;;;;;0.50;0.50;;;14.40;99.90;;;;;;5090323;28;20427;-75
2022/07/11 06:51:04;;;;;;;0.40;0.40;;;14.50;99.90;;;;;;5086073;28;20766;-73
2022/07/11 06:53:53;;;;;;;0.50;0.50;;;14.60;99.90;;;;;;5070622;28;20436;-73
2022/07/11 06:56:41;;;;;;;0.50;0.50;;;14.70;99.90;;;;;;5077900;28;20424;-72
2022/07/11 06:59:29;;;;;;;0.50;0.50;;;14.80;99.90;;;;;;5088017;28;20447;-74
2022/07/11 07:02:19;;;;;;;0.40;0.40;;;14.80;99.90;;;;;;5092266;28;20423;-73
2022/07/11 07:05:08;;;;;;;0.40;0.40;;;15.00;99.90;;;;;;5092045;28;20427;-72
2022/07/11 07:08:00;;;;;;;0.40;0.40;;;15.00;99.90;;;;;;5089604;28;20431;-73
2022/07/11 07:10:48;;;;;;;0.40;0.40;;;15.10;99.90;;;;;;5087798;28;20200;-74
2022/07/11 07:13:36;;;;;;;0.50;0.50;;;15.10;99.90;;;;;;5089595;28;20201;-71
2022/07/11 07:16:25;;;;;;;0.40;0.40;;;15.20;99.90;;;;;;5076981;28;20466;-72
2022/07/11 07:19:14;;;;;;;0.60;0.60;;;15.20;99.90;;;;;;5070781;28;20459;-74
2022/07/11 07:22:03;;;;;;;0.60;0.50;;;15.30;99.90;;;;;;5068378;28;20201;-76
2022/07/11 07:24:51;;;;;;;0.50;0.50;;;15.30;99.90;;;;;;5063829;28;20434;-77
2022/07/11 07:27:39;;;;;;;0.73;0.60;;;15.40;99.90;;;;;;5082032;28;21205;-74
2022/07/11 07:30:27;;;;;;;3.70;0.90;;;15.50;99.90;;;;;;5079686;28;20758;-75
2022/07/11 07:33:15;;;;;;;0.40;0.40;;;15.70;99.90;;;;;;5083812;28;20428;-75
2022/07/11 07:36:24;;;;;;;0.50;0.50;;;15.70;99.90;;;;;;5081994;28;20287;-74
2022/07/11 07:39:12;;;;;;;0.50;0.50;;;15.70;99.90;;;;;;5081285;28;20232;-74
2022/07/11 07:42:00;;;;;;;0.47;0.47;;;15.80;99.90;;;;;;5084532;28;20457;-76
2022/07/11 07:44:49;;;;;;;0.40;0.40;;;15.90;99.90;;;;;;5081992;28;20207;-73
2022/07/11 07:47:37;;;;;;;2.17;0.90;;;15.90;99.90;;;;;;5084107;28;20254;-75
2022/07/11 07:50:26;;;;;;;0.50;0.50;;;16.00;99.90;;;;;;5085931;28;20217;-74
2022/07/11 07:53:16;;;;;;;0.82;0.82;;;16.00;99.90;;;;;;5083761;28;20203;-75
2022/07/11 07:56:05;;;;;;;0.50;0.50;;;16.10;99.90;;;;;;5079879;28;20274;-75
2022/07/11 07:58:53;;;;;;;0.80;0.73;;;16.20;99.90;;;;;;5084329;28;20455;-75
2022/07/11 08:01:42;;;;;;;0.60;0.60;;;16.20;99.90;;;;;;5092895;28;20201;-74
2022/07/11 08:04:30;;;;;;;0.40;0.40;;;16.20;99.90;;;;;;5089451;28;20197;-75
2022/07/11 08:07:19;;;;;;;0.53;0.53;;;16.30;99.90;;;;;;5091036;28;20362;-74
2022/07/11 08:10:09;;;;;;;0.50;0.50;;;16.30;99.90;;;;;;5095472;28;20265;-73
2022/07/11 08:12:57;;;;;;;0.60;0.60;;;16.40;99.90;;;;;;5101281;28;20199;-74
2022/07/11 08:15:46;;;;;;;0.50;0.50;;;16.40;99.90;;;;;;5093019;28;20212;-75
2022/07/11 08:18:34;;;;;;;0.50;0.50;;;16.50;99.90;;;;;;5080620;28;20221;-74
2022/07/11 08:21:22;;;;;;;0.60;0.60;;;16.50;99.90;;;;;;5086947;28;20201;-75
2022/07/11 08:24:11;;;;;;;0.40;0.40;;;16.70;99.90;;;;;;5089669;28;20204;-74
2022/07/11 08:27:00;;;;;;;0.50;0.50;;;16.70;99.90;;;;;;5079605;28;20318;-75
2022/07/11 08:30:09;;;;;;;0.40;0.40;;;16.70;99.90;;;;;;5084447;28;20747;-75
2022/07/11 08:32:57;;;;;;;0.50;0.50;;;16.90;99.90;;;;;;5088177;28;20227;-74
2022/07/11 08:35:46;;;;;;;0.50;0.50;;;17.00;99.90;;;;;;5083778;28;20696;-73
2022/07/11 08:38:34;;;;;;;0.60;0.60;;;17.00;99.90;;;;;;5086668;28;20236;-77
2022/07/11 08:41:22;;;;;;;0.60;0.57;;;17.10;99.90;;;;;;5083775;28;20197;-73
2022/07/11 08:44:12;;;;;;;0.60;0.60;;;17.00;99.90;;;;;;5089536;28;20207;-75
2022/07/11 08:47:00;;;;;;;0.75;0.63;;;17.10;99.90;;;;;;5087427;28;20441;-75
2022/07/11 08:49:49;;;;;;;0.40;0.40;;;17.00;99.90;;;;;;5085305;28;20216;-76
2022/07/11 08:52:38;;;;;;;0.50;0.50;;;17.20;99.90;;;;;;5082093;28;20208;-80
2022/07/11 08:55:26;;;;;;;1.33;1.23;;;17.30;99.90;;;;;;5080563;28;20207;-77
2022/07/11 08:58:15;;;;;;;0.40;0.40;;;17.40;99.90;;;;;;5078430;28;20200;-75
2022/07/11 09:01:06;;;;;;;0.40;0.40;;;17.50;99.90;;;;;;5082322;28;20265;-77
2022/07/11 09:03:55;;;;;;;0.40;0.40;;;17.50;99.90;;;;;;5080060;28;20642;-78
2022/07/11 09:06:43;;;;;;;0.77;0.70;;;17.50;99.90;;;;;;5080338;28;20224;-75
2022/07/11 09:09:32;;;;;;;0.40;0.40;;;17.50;99.90;;;;;;5082824;28;20636;-77
2022/07/11 09:12:20;;;;;;;0.50;0.50;;;17.60;99.90;;;;;;5077531;28;20206;-77
2022/07/11 09:15:09;;;;;;;2.10;0.82;;;17.80;99.90;;;;;;5082402;28;20231;-74
2022/07/11 09:17:58;;;;;;;0.65;0.65;;;17.90;99.90;;;;;;5080903;28;20197;-76
2022/07/11 09:27:11;;;;;;;0.40;0.40;;;18.10;99.90;;;;;;5079553;28;20269;-82
2022/07/11 09:30:17;;;;;;;0.40;0.40;;;18.10;99.90;;;;;;5084172;28;20220;-76
2022/07/11 09:33:09;;;;;;;0.60;0.50;;;18.10;99.90;;;;;;5075922;28;20331;-77
2022/07/11 09:35:57;;;;;;;0.43;0.43;;;18.20;99.90;;;;;;5077110;28;20664;-76
2022/07/11 09:38:57;;;;;;;0.40;0.40;;;18.30;99.90;;;;;;5078364;28;20224;-78
2022/07/11 09:41:46;;;;;;;1.60;0.70;;;18.40;99.90;;;;;;5080313;28;20193;-79
2022/07/11 09:44:35;;;;;;;0.40;0.40;;;18.20;99.90;;;;;;5072121;28;20254;-76
2022/07/11 09:47:23;;;;;;;0.50;0.50;;;18.20;99.90;;;;;;5081948;28;20217;-77
2022/07/11 09:50:13;;;;;;;0.40;0.40;;;18.30;99.90;;;;;;5082732;28;20713;-77
2022/07/11 09:53:04;;;;;;;0.60;0.60;;;18.40;99.90;;;;;;5077669;28;20201;-76
2022/07/11 09:55:52;;;;;;;0.47;0.47;;;18.50;99.90;;;;;;5078328;28;20189;-76
2022/07/11 09:58:41;;;;;;;0.50;0.50;;;18.60;99.90;;;;;;5079245;28;20220;-75
2022/07/11 10:01:29;;;;;;;0.50;0.50;;;18.70;99.90;;;;;;5082532;28;20204;-78
2022/07/11 10:04:17;;;;;;;0.50;0.50;;;19.00;99.90;;;;;;5081499;28;20204;-80
2022/07/11 10:07:07;;;;;;;0.40;0.40;;;19.20;99.90;;;;;;5078353;28;20315;-77
2022/07/11 10:09:56;;;;;;;0.50;0.50;;;19.40;99.90;;;;;;5079225;28;20701;-77
2022/07/11 10:12:46;;;;;;;0.45;0.45;;;19.60;99.90;;;;;;5083161;28;20196;-77
2022/07/11 10:15:36;;;;;;;0.40;0.40;;;20.00;99.90;;;;;;5082457;28;20449;-77
2022/07/11 10:18:34;;;;;;;0.40;0.40;;;20.00;99.90;;;;;;5093126;28;20596;-79
2022/07/11 10:21:28;;;;;;;0.75;0.70;;;20.40;99.90;;;;;;5088470;28;20204;-76
2022/07/11 10:24:31;;;;;;;0.50;0.50;;;20.50;99.90;;;;;;5083510;28;20250;-80
2022/07/11 10:27:28;;;;;;;0.40;0.40;;;20.40;99.90;;;;;;5087021;28;20215;-74
2022/07/11 10:30:47;;;;;;;0.60;0.60;;;20.40;99.90;;;;;;5089291;28;20714;-77
2022/07/11 10:33:55;;;;;;;0.40;0.40;;;20.80;99.90;;;;;;5083414;28;20589;-76
2022/07/11 10:36:45;;;;;;;0.40;0.40;;;20.60;99.90;;;;;;5085457;28;20249;-77
2022/07/11 10:39:36;;;;;;;0.50;0.50;;;20.50;99.90;;;;;;5083068;28;20228;-80
2022/07/11 10:42:38;;;;;;;0.40;0.40;;;20.50;99.90;;;;;;5082425;28;20228;-77
2022/07/11 10:45:27;;;;;;;0.80;0.60;;;20.70;99.90;;;;;;5083012;28;20192;-82
2022/07/11 10:48:15;;;;;;;0.40;0.40;;;21.10;99.90;;;;;;5077811;28;20227;-78
2022/07/11 10:51:15;;;;;;;0.63;0.63;;;21.20;99.90;;;;;;5075554;28;20201;-81
2022/07/11 10:54:12;;;;;;;0.40;0.40;;;21.10;99.90;;;;;;5079477;28;20204;-77
2022/07/11 10:57:14;;;;;;;0.40;0.40;;;21.00;99.90;;;;;;5070517;28;20258;-76
2022/07/11 11:00:06;;;;;;;0.55;0.47;;;21.10;99.90;;;;;;5083606;28;20226;-77
2022/07/11 11:03:03;;;;;;;0.40;0.40;;;21.10;99.90;;;;;;5082635;28;20221;-75
2022/07/11 11:05:53;;;;;;;0.40;0.40;;;20.90;99.90;;;;;;5081503;28;20789;-78
2022/07/11 11:08:43;;;;;;;0.40;0.40;;;20.80;99.90;;;;;;5080752;28;20220;-76
2022/07/11 11:11:37;;;;;;;0.40;0.40;;;20.70;99.90;;;;;;5077761;28;20212;-75
2022/07/11 11:14:27;;;;;;;0.40;0.40;;;20.50;99.90;;;;;;5080470;28;20212;-76
2022/07/11 11:17:35;;;;;;;0.40;0.40;;;20.50;99.90;;;;;;5087806;28;20196;-78
2022/07/11 11:20:33;;;;;;;0.40;0.40;;;20.60;99.90;;;;;;5083443;28;20246;-75
2022/07/11 11:23:23;;;;;;;0.50;0.50;;;20.80;99.90;;;;;;5093717;28;20206;-77
2022/07/11 11:26:13;;;;;;;0.40;0.40;;;20.90;99.90;;;;;;5082208;28;20203;-75
2022/07/11 11:29:05;;;;;;;0.40;0.40;;;21.30;99.90;;;;;;5081748;28;20295;-76
2022/07/11 11:31:58;;;;;;;0.40;0.40;;;21.40;99.90;;;;;;5085211;28;20688;-76
2022/07/11 11:34:47;;;;;;;0.50;0.50;;;21.10;99.90;;;;;;5084963;28;20208;-75
2022/07/11 11:37:35;;;;;;;0.40;0.40;;;21.00;99.90;;;;;;5087394;28;20196;-74
2022/07/11 11:40:24;;;;;;;0.40;0.40;;;21.10;99.90;;;;;;5084948;28;20224;-75
2022/07/11 11:43:19;;;;;;;0.40;0.40;;;21.50;99.90;;;;;;5078391;28;20193;-74
2022/07/11 11:46:07;;;;;;;0.40;0.40;;;21.60;99.90;;;;;;5085464;28;20619;-74
2022/07/11 11:48:57;;;;;;;0.60;0.50;;;21.40;99.90;;;;;;5087036;28;20219;-74
2022/07/11 11:51:47;;;;;;;0.40;0.40;;;21.10;99.90;;;;;;5085444;28;20193;-75
2022/07/11 11:54:35;;;;;;;0.50;0.50;;;21.20;99.90;;;;;;5086544;28;20567;-76
2022/07/11 11:57:26;;;;;;;0.95;0.85;;;21.10;99.90;;;;;;5080118;28;20201;-78
2022/07/11 12:00:26;;;;;;;0.52;0.52;;;21.00;99.90;;;;;;5081572;28;20711;-75
2022/07/11 12:03:48;;;;;;;0.50;0.50;;;20.90;99.90;;;;;;5056281;28;20276;-74
2022/07/11 12:06:40;;;;;;;0.60;0.60;;;20.80;99.90;;;;;;5054630;28;20543;-74
2022/07/11 12:09:50;;;;;;;0.40;0.40;;;20.90;99.90;;;;;;5083713;28;20231;-74
2022/07/11 12:12:48;;;;;;;0.50;0.50;;;21.00;99.90;;;;;;5083468;28;20200;-76
2022/07/11 12:16:39;;;;;;;0.50;0.50;;;21.10;99.90;;;;;;5082818;28;20196;-77
2022/07/11 12:18:49;;;;;;;0.40;0.40;;;21.30;99.90;;;;;;5077303;28;20216;-76
2022/07/11 12:21:39;;;;;;;0.40;0.40;;;21.30;99.90;;;;;;5076053;28;20636;-80
2022/07/11 12:24:27;;;;;;;0.40;0.40;;;21.50;99.90;;;;;;5076153;28;20743;-76
2022/07/11 12:27:18;;;;;;;0.50;0.50;;;21.50;99.90;;;;;;5076388;28;20204;-78
2022/07/11 12:30:07;;;;;;;0.50;0.50;;;21.70;99.90;;;;;;5075721;28;20231;-76
2022/07/11 12:33:06;;;;;;;0.40;0.40;;;21.90;99.90;;;;;;5083018;28;20692;-75
2022/07/11 12:35:57;;;;;;;0.43;0.43;;;22.00;99.90;;;;;;5085599;28;20517;-77
2022/07/11 12:38:51;;;;;;;0.50;0.50;;;22.20;99.90;;;;;;5086340;28;20224;-73
2022/07/11 12:41:39;;;;;;;0.40;0.40;;;22.60;98.60;;;;;;5076373;28;20282;-77
2022/07/11 12:47:38;;;;;;;1.67;0.60;;;24.00;97.00;;;;;;5076831;28;20201;-72
2022/07/11 12:50:28;;;;;;;0.40;0.40;;;26.00;93.80;;;;;;5083126;28;20219;-72
2022/07/11 12:53:17;;;;;;;4.95;0.90;;;28.00;89.30;;;;;;5088781;28;20201;-72
2022/07/11 12:56:07;;;;;;;0.40;0.40;;;30.30;79.70;;;;;;5080281;28;20345;-71
2022/07/11 12:58:56;;;;;;;0.40;0.40;;;31.30;71.90;;;;;;5084078;28;20261;-72
2022/07/11 13:01:55;;;;;;;0.60;0.60;;;30.50;68.20;;;;;;5083232;28;20204;-72
2022/07/11 13:04:48;;;;;;;0.98;0.98;;;30.70;68.70;;;;;;5053607;28;20700;-72
2022/07/11 13:13:55;;;;;;;0.40;0.40;;;30.70;66.10;;;;;;5082971;28;20214;-69
2022/07/11 13:16:43;;;;;;;0.40;0.40;;;32.30;63.10;;;;;;5079622;28;20204;-73
2022/07/11 13:19:32;;;;;;;0.88;0.55;;;32.80;60.50;;;;;;5082012;28;20204;-73
2022/07/11 13:22:20;;;;;;;0.40;0.40;;;32.80;59.70;;;;;;5084671;28;20192;-72
2022/07/11 13:25:10;;;;;;;0.40;0.40;;;32.80;59.60;;;;;;5083905;28;20192;-73
2022/07/11 13:27:58;;;;;;;0.40;0.40;;;34.00;58.60;;;;;;5093309;28;20207;-73
2022/07/11 13:30:48;;;;;;;0.50;0.50;;;34.20;55.00;;;;;;5092926;28;20200;-73
2022/07/11 13:33:56;;;;;;;0.40;0.40;;;32.90;56.60;;;;;;5093229;28;20679;-73
2022/07/11 13:36:44;;;;;;;0.40;0.40;;;33.70;56.70;;;;;;5087328;28;20197;-73
2022/07/11 13:39:32;;;;;;;0.40;0.40;;;35.20;54.50;;;;;;5087368;28;20290;-73
2022/07/11 13:42:20;;;;;;;0.40;0.40;;;34.40;54.40;;;;;;5087453;28;20200;-73
2022/07/11 13:45:10;;;;;;;0.40;0.40;;;35.10;54.10;;;;;;5091102;28;20204;-72
2022/07/11 13:48:00;;;;;;;0.40;0.40;;;33.90;53.00;;;;;;5089019;28;20193;-72
2022/07/11 13:50:48;;;;;;;0.40;0.40;;;32.10;56.00;;;;;;5093693;28;20554;-72
2022/07/11 13:53:36;;;;;;;0.50;0.50;;;32.60;55.90;;;;;;5098531;28;20196;-74
2022/07/11 13:56:25;;;;;;;1.25;0.85;;;34.10;52.60;;;;;;5100584;28;20200;-73
2022/07/11 13:59:13;;;;;;;0.45;0.45;;;34.90;51.40;;;;;;5083393;28;20212;-73
2022/07/11 14:02:02;;;;;;;0.50;0.50;;;36.50;50.10;;;;;;5082392;28;20205;-73
2022/07/11 14:04:52;;;;;;;0.43;0.43;;;38.90;48.10;;;;;;5080092;28;20197;-73
2022/07/11 14:07:40;;;;;;;0.40;0.40;;;39.00;45.90;;;;;;5078795;28;20205;-72
2022/07/11 14:10:28;;;;;;;0.50;0.50;;;38.90;45.60;;;;;;5080619;28;20228;-72
2022/07/11 14:13:17;;;;;;;0.50;0.50;;;38.30;45.60;;;;;;5077114;28;20204;-73
2022/07/11 14:16:06;;;;;;;0.43;0.43;;;38.30;44.70;;;;;;5081563;28;20196;-72
2022/07/11 14:19:10;;;;;;;0.40;0.40;;;38.10;44.30;;;;;;5080149;28;20222;-70
2022/07/11 14:21:59;;;;;;;0.40;0.40;;;34.70;46.80;;;;;;5078401;28;20197;-73
2022/07/11 14:24:47;;;;;;;1.42;0.60;;;34.00;49.00;;;;;;5080727;28;20193;-73
2022/07/11 14:27:36;;;;;;;0.40;0.40;;;34.80;48.30;;;;;;5080648;28;20204;-73
2022/07/11 14:30:25;;;;;;;0.40;0.40;;;34.30;48.50;;;;;;5076094;28;20226;-73
2022/07/11 14:33:13;;;;;;;0.40;0.40;;;33.20;49.60;;;;;;5081833;28;20208;-72
2022/07/11 14:36:01;;;;;;;0.40;0.40;;;32.80;49.50;;;;;;5089574;28;20199;-72
2022/07/11 14:38:51;;;;;;;0.50;0.50;;;32.00;51.50;;;;;;5063768;28;20228;-72
2022/07/11 14:41:39;;;;;;;0.40;0.40;;;30.40;51.90;;;;;;5051238;28;20197;-71
2022/07/11 14:44:27;;;;;;;0.40;0.40;;;28.60;54.70;;;;;;5054982;28;20201;-72
2022/07/11 14:47:15;;;;;;;0.40;0.40;;;27.50;57.30;;;;;;5072094;28;20215;-73
2022/07/11 14:50:04;;;;;;;0.40;0.40;;;26.80;58.60;;;;;;5070728;28;20226;-73
2022/07/11 14:52:53;;;;;;;0.40;0.40;;;26.60;59.30;;;;;;5051733;28;20576;-74
2022/07/11 14:55:43;;;;;;;0.40;0.40;;;26.80;58.70;;;;;;5050880;28;20261;-73
2022/07/11 14:58:31;;;;;;;0.40;0.40;;;26.50;58.90;;;;;;5050470;28;20201;-72
2022/07/11 15:01:19;;;;;;;0.60;0.60;;;26.50;59.60;;;;;;5050739;28;20193;-72